createdAt,value
2022-08-10T00:00:07.138Z,100009.40
2022-08-10T00:00:48.606Z,100012.77
2022-08-10T00:01:20.556Z,100012.65
2022-08-10T00:01:54.123Z,100010.90
2022-08-10T00:02:27.275Z,100014.48
2022-08-10T00:03:00.325Z,100016.67
2022-08-10T00:03:32.294Z,100016.10
2022-08-10T00:04:04.306Z,100015.09
2022-08-10T00:04:36.204Z,100016.73
2022-08-10T00:05:07.948Z,100017.11
2022-08-10T00:05:43.655Z,100016.25
2022-08-10T00:06:24.893Z,100015.79
2022-08-10T00:06:56.694Z,100015.83
2022-08-10T00:07:29.223Z,100013.84
2022-08-10T00:08:00.952Z,100014.06
2022-08-10T00:08:32.761Z,100012.80
2022-08-10T00:09:04.574Z,100009.84
2022-08-10T00:09:50.659Z,100009.31
2022-08-10T00:10:26.163Z,100014.34
2022-08-10T00:10:58.253Z,100011.17
2022-08-10T00:11:30.129Z,100014.14
2022-08-10T00:12:01.936Z,100013.37
2022-08-10T00:12:33.944Z,100014.72
2022-08-10T00:13:26.411Z,100018.98
2022-08-10T00:13:58.291Z,100018.95
2022-08-10T00:14:32.732Z,100019.98
2022-08-10T00:15:06.231Z,100017.90
2022-08-10T00:15:52.495Z,100020.95
2022-08-10T00:16:25.373Z,100016.83
2022-08-10T00:16:57.264Z,100017.41
2022-08-10T00:17:29.223Z,100020.54
2022-08-10T00:18:01.279Z,100017.73
2022-08-10T00:18:35.815Z,100017.30
2022-08-10T00:19:08.256Z,100023.08
2022-08-10T00:20:02.589Z,100020.04
2022-08-10T00:20:33.484Z,100020.02
2022-08-10T00:21:06.956Z,100021.30
2022-08-10T00:21:38.778Z,100023.39
2022-08-10T00:22:11.160Z,100020.07
2022-08-10T00:22:53.076Z,100021.52
2022-08-10T00:23:29.866Z,100024.16
2022-08-10T00:24:01.549Z,100019.60
2022-08-10T00:24:33.397Z,100021.38
2022-08-10T00:25:06.556Z,100019.02
2022-08-10T00:25:38.317Z,100018.66
2022-08-10T00:26:10.421Z,100020.52
2022-08-10T00:27:52.952Z,100021.47
2022-08-10T00:28:01.405Z,100016.68
2022-08-10T00:28:27.441Z,100017.46
2022-08-10T00:28:59.260Z,100015.89
2022-08-10T00:29:31.249Z,100019.80
2022-08-10T00:30:05.125Z,100016.13
2022-08-10T00:30:37.153Z,100018.98
2022-08-10T00:31:09.011Z,100015.70
2022-08-10T00:31:58.736Z,100020.46
2022-08-10T00:32:31.197Z,100018.16
2022-08-10T00:33:03.218Z,100020.24
2022-08-10T00:33:35.038Z,100016.46
2022-08-10T00:34:07.199Z,100019.51
2022-08-10T00:34:38.994Z,100019.99
2022-08-10T00:35:10.805Z,100019.44
2022-08-10T00:35:42.635Z,100018.58
2022-08-10T00:36:14.425Z,100019.77
2022-08-10T00:36:46.257Z,100020.78
2022-08-10T00:37:18.465Z,100019.37
2022-08-10T00:37:56.284Z,100021.84
2022-08-10T00:38:30.013Z,100021.39
2022-08-10T00:39:01.762Z,100022.52
2022-08-10T00:39:36.376Z,100022.65
2022-08-10T00:40:12.311Z,100019.92
2022-08-10T00:40:44.140Z,100021.77
2022-08-10T00:41:15.883Z,100021.98
2022-08-10T00:42:01.780Z,100017.30
2022-08-10T00:42:39.679Z,100020.57
2022-08-10T00:43:11.335Z,100019.83
2022-08-10T00:43:43.040Z,100018.54
2022-08-10T00:44:14.851Z,100017.81
2022-08-10T00:44:53.112Z,100020.13
2022-08-10T00:45:25.049Z,100018.80
2022-08-10T00:45:59.362Z,100018.16
2022-08-10T00:46:32.202Z,100022.17
2022-08-10T00:47:05.364Z,100016.40
2022-08-10T00:47:37.827Z,100012.40
2022-08-10T00:48:09.712Z,100014.11
2022-08-10T00:48:41.664Z,100013.71
2022-08-10T00:49:14.123Z,100013.16
2022-08-10T00:49:46.507Z,100015.58
2022-08-10T00:50:18.612Z,100009.64
2022-08-10T00:50:50.693Z,100012.48
2022-08-10T00:51:22.598Z,100013.66
2022-08-10T00:52:14.273Z,100016.08
2022-08-10T00:52:46.076Z,100013.17
2022-08-10T00:53:17.833Z,100011.02
2022-08-10T00:53:49.708Z,100011.65
2022-08-10T00:54:25.001Z,100012.42
2022-08-10T00:54:58.206Z,100011.77
2022-08-10T00:55:30.607Z,100013.23
2022-08-10T00:57:12.394Z,100016.55
2022-08-10T00:57:16.020Z,100012.66
2022-08-10T00:57:54.937Z,100011.03
2022-08-10T00:58:27.613Z,100012.27
2022-08-10T00:58:59.408Z,100010.67
2022-08-10T00:59:32.808Z,100008.72
2022-08-10T01:00:06.876Z,100009.97
2022-08-10T01:00:39.190Z,100009.41
2022-08-10T01:02:08.652Z,100007.55
2022-08-10T01:02:09.524Z,100009.02
2022-08-10T01:02:43.309Z,100005.98
2022-08-10T01:03:17.024Z,100007.05
2022-08-10T01:04:43.593Z,100007.27
2022-08-10T01:05:05.733Z,100003.91
2022-08-10T01:05:51.405Z,100004.19
2022-08-10T01:06:26.836Z,100001.09
2022-08-10T01:07:01.774Z,99998.80
2022-08-10T01:07:42.432Z,100001.38
2022-08-10T01:08:22.931Z,100000.75
2022-08-10T01:09:06.166Z,100000.52
2022-08-10T01:09:56.720Z,100001.21
2022-08-10T01:10:41.729Z,100000.23
2022-08-10T01:12:37.351Z,99999.14
2022-08-10T01:12:41.604Z,100003.84
2022-08-10T01:13:35.808Z,100005.70
2022-08-10T01:14:30.910Z,100004.88
2022-08-10T01:15:21.392Z,100001.23
2022-08-10T01:16:03.339Z,100007.03
2022-08-10T01:16:48.158Z,100006.34
2022-08-10T01:17:50.521Z,100006.99
2022-08-10T01:18:43.030Z,100002.20
2022-08-10T01:19:48.900Z,100000.41
2022-08-10T01:20:31.742Z,99997.97
2022-08-10T01:21:24.494Z,99994.46
2022-08-10T01:22:17.926Z,99995.65
2022-08-10T01:23:17.741Z,99993.89
2022-08-10T01:24:08.542Z,99995.00
2022-08-10T01:25:26.630Z,99990.29
2022-08-10T01:26:31.583Z,99987.18
2022-08-10T01:27:03.757Z,99988.26
2022-08-10T01:28:09.230Z,99990.34
2022-08-10T01:29:00.791Z,99989.81
2022-08-10T01:29:57.610Z,99993.96
2022-08-10T01:30:32.127Z,99992.48
2022-08-10T01:31:05.907Z,99994.83
2022-08-10T01:31:42.875Z,99994.85
2022-08-10T01:32:20.207Z,99993.29
2022-08-10T01:33:06.886Z,99994.96
2022-08-10T01:33:58.775Z,99993.70
2022-08-10T01:34:57.881Z,99996.64
2022-08-10T01:35:53.967Z,99996.35
2022-08-10T01:36:41.230Z,99994.67
2022-08-10T01:37:16.915Z,99992.11
2022-08-10T01:37:58.647Z,99990.99
2022-08-10T01:38:40.195Z,99991.30
2022-08-10T01:39:19.826Z,99991.82
2022-08-10T01:39:58.574Z,99990.44
2022-08-10T01:40:33.858Z,99991.39
2022-08-10T01:41:13.695Z,99989.36
2022-08-10T01:41:50.538Z,99989.48
2022-08-10T01:42:25.318Z,99989.95
2022-08-10T01:43:08.469Z,99993.77
2022-08-10T01:43:43.715Z,99991.45
2022-08-10T01:44:23.565Z,99992.33
2022-08-10T01:44:57.188Z,99994.48
2022-08-10T01:45:45.187Z,99995.35
2022-08-10T01:46:22.318Z,99997.29
2022-08-10T01:47:22.221Z,99996.69
2022-08-10T01:48:16.709Z,99993.96
2022-08-10T01:48:53.138Z,99995.73
2022-08-10T01:49:28.117Z,99996.86
2022-08-10T01:50:09.917Z,99995.40
2022-08-10T01:50:59.450Z,99994.34
2022-08-10T01:51:55.070Z,99991.70
2022-08-10T01:52:28.954Z,99996.73
2022-08-10T01:53:11.957Z,99992.16
2022-08-10T01:53:51.580Z,99994.02
2022-08-10T01:54:26.742Z,99994.60
2022-08-10T01:54:59.118Z,99996.50
2022-08-10T01:55:32.872Z,99992.91
2022-08-10T01:56:07.178Z,99996.17
2022-08-10T01:56:43.381Z,99999.95
2022-08-10T01:57:17.150Z,99995.61
2022-08-10T01:57:54.933Z,99996.17
2022-08-10T01:58:29.814Z,99999.13
2022-08-10T01:59:16.261Z,99994.24
2022-08-10T01:59:58.485Z,99997.66
2022-08-10T02:00:37.566Z,99992.92
2022-08-10T02:01:16.817Z,99994.09
2022-08-10T02:01:58.906Z,99994.00
2022-08-10T02:02:33.584Z,99996.59
2022-08-10T02:03:08.472Z,99994.48
2022-08-10T02:04:01.659Z,99995.75
2022-08-10T02:04:37.765Z,100000.52
2022-08-10T02:05:11.339Z,99997.56
2022-08-10T02:05:44.680Z,99999.21
2022-08-10T02:06:17.286Z,99997.86
2022-08-10T02:06:51.914Z,100000.69
2022-08-10T02:07:27.237Z,99997.73
2022-08-10T02:08:02.692Z,100001.18
2022-08-10T02:08:36.329Z,100000.45
2022-08-10T02:09:10.767Z,100001.42
2022-08-10T02:09:48.927Z,100000.16
2022-08-10T02:10:23.786Z,100001.42
2022-08-10T02:10:58.588Z,100003.77
2022-08-10T02:11:30.473Z,100000.77
2022-08-10T02:12:28.844Z,100000.29
2022-08-10T02:13:02.545Z,100001.12
2022-08-10T02:13:35.317Z,100002.77
2022-08-10T02:14:08.911Z,100001.88
2022-08-10T02:14:47.435Z,100001.05
2022-08-10T02:15:21.565Z,100003.09
2022-08-10T02:16:01.045Z,100003.42
2022-08-10T02:16:36.506Z,100002.95
2022-08-10T02:17:57.034Z,100003.91
2022-08-10T02:18:05.973Z,100002.80
2022-08-10T02:18:39.854Z,100000.11
2022-08-10T02:19:16.016Z,100001.50
2022-08-10T02:19:51.211Z,99999.63
2022-08-10T02:20:27.185Z,100000.41
2022-08-10T02:21:06.601Z,100001.90
2022-08-10T02:21:40.083Z,100002.31
2022-08-10T02:22:45.882Z,100005.55
2022-08-10T02:23:24.576Z,100002.73
2022-08-10T02:24:00.543Z,100004.61
2022-08-10T02:24:33.896Z,100005.04
2022-08-10T02:25:08.641Z,100004.31
2022-08-10T02:25:43.844Z,100004.77
2022-08-10T02:26:16.965Z,100004.55
2022-08-10T02:26:50.073Z,100005.13
2022-08-10T02:27:32.662Z,100003.63
2022-08-10T02:28:07.121Z,99999.23
2022-08-10T02:28:40.297Z,99998.87
2022-08-10T02:29:15.610Z,100003.05
2022-08-10T02:29:49.371Z,100000.83
2022-08-10T02:30:22.644Z,100002.72
2022-08-10T02:30:57.643Z,100002.48
2022-08-10T02:31:31.743Z,99999.84
2022-08-10T02:32:07.317Z,99999.61
2022-08-10T02:32:43.222Z,100000.09
2022-08-10T02:33:26.761Z,100000.63
2022-08-10T02:33:59.446Z,99999.84
2022-08-10T02:34:33.354Z,99998.95
2022-08-10T02:35:13.265Z,99999.23
2022-08-10T02:35:58.891Z,99998.39
2022-08-10T02:36:33.779Z,99999.64
2022-08-10T02:37:10.895Z,99998.05
2022-08-10T02:37:47.276Z,100002.24
2022-08-10T02:38:57.415Z,99999.53
2022-08-10T02:39:18.621Z,99998.95
2022-08-10T02:51:02.820Z,100007.58
2022-08-10T02:52:06.289Z,100013.66
2022-08-10T02:52:51.338Z,100015.02
2022-08-10T02:53:55.305Z,100017.39
2022-08-10T02:54:37.478Z,100016.28
2022-08-10T02:55:20.208Z,100018.05
2022-08-10T02:56:05.350Z,100019.55
2022-08-10T02:56:51.843Z,100017.34
2022-08-10T02:57:33.866Z,100017.36
2022-08-10T02:58:17.678Z,100019.24
2022-08-10T02:58:58.830Z,100017.25
2022-08-10T02:59:39.873Z,100016.41
2022-08-10T03:00:14.165Z,100020.86
2022-08-10T03:00:52.042Z,100016.80
2022-08-10T03:01:37.550Z,100022.62
2022-08-10T03:02:17.088Z,100020.22
2022-08-10T03:02:53.089Z,100019.90
2022-08-10T03:03:37.954Z,100020.91
2022-08-10T03:04:56.068Z,100018.44
2022-08-10T03:05:27.076Z,100023.39
2022-08-10T03:06:04.118Z,100023.18
2022-08-10T03:06:44.135Z,100024.47
2022-08-10T03:07:42.968Z,100024.48
2022-08-10T03:08:18.587Z,100026.23
2022-08-10T03:08:53.779Z,100024.50
2022-08-10T03:09:29.360Z,100024.67
2022-08-10T03:10:13.241Z,100023.88
2022-08-10T03:10:49.933Z,100024.41
2022-08-10T03:12:36.018Z,100023.46
2022-08-10T03:12:38.470Z,100025.09
2022-08-10T03:13:12.594Z,100027.08
2022-08-10T03:13:59.660Z,100023.87
2022-08-10T03:14:36.462Z,100027.08
2022-08-10T03:15:15.869Z,100024.77
2022-08-10T03:15:51.060Z,100028.70
2022-08-10T03:16:26.208Z,100025.86
2022-08-10T03:17:09.202Z,100022.84
2022-08-10T03:17:57.417Z,100021.00
2022-08-10T03:18:33.434Z,100023.80
2022-08-10T03:20:34.032Z,100018.15
2022-08-10T03:20:38.468Z,100022.77
2022-08-10T03:20:59.125Z,100017.89
2022-08-10T03:21:34.652Z,100019.41
2022-08-10T03:22:08.932Z,100019.71
2022-08-10T03:22:45.626Z,100023.63
2022-08-10T03:23:22.042Z,100024.12
2022-08-10T03:23:56.168Z,100026.43
2022-08-10T03:24:33.498Z,100023.91
2022-08-10T03:25:09.557Z,100024.36
2022-08-10T03:25:54.018Z,100023.16
2022-08-10T03:26:31.736Z,100027.27
2022-08-10T03:27:05.900Z,100026.10
2022-08-10T03:27:41.348Z,100022.91
2022-08-10T03:28:21.263Z,100026.19
2022-08-10T03:28:55.332Z,100027.33
2022-08-10T03:29:29.200Z,100029.02
2022-08-10T03:30:29.696Z,100028.89
2022-08-10T03:30:59.717Z,100025.83
2022-08-10T03:31:34.314Z,100027.04
2022-08-10T03:32:14.339Z,100025.11
2022-08-10T03:32:48.617Z,100024.08
2022-08-10T03:33:24.583Z,100024.73
2022-08-10T03:34:01.114Z,100022.66
2022-08-10T03:34:36.290Z,100025.23
2022-08-10T03:35:10.491Z,100022.71
2022-08-10T03:35:43.583Z,100025.67
2022-08-10T03:36:43.986Z,100025.63
2022-08-10T03:37:17.994Z,100023.84
2022-08-10T03:37:51.655Z,100020.64
2022-08-10T03:38:34.189Z,100027.18
2022-08-10T03:39:08.494Z,100027.33
2022-08-10T03:39:43.739Z,100025.05
2022-08-10T03:40:17.480Z,100024.17
2022-08-10T03:40:52.627Z,100024.97
2022-08-10T03:41:38.234Z,100030.54
2022-08-10T03:42:15.731Z,100026.89
2022-08-10T03:42:51.455Z,100032.05
2022-08-10T03:43:27.723Z,100031.48
2022-08-10T03:44:02.804Z,100034.55
2022-08-10T03:44:37.721Z,100033.64
2022-08-10T03:45:11.913Z,100034.87
2022-08-10T03:45:55.725Z,100038.21
2022-08-10T03:46:31.199Z,100037.55
2022-08-10T03:47:15.961Z,100040.55
2022-08-10T03:47:52.525Z,100036.23
2022-08-10T03:48:47.124Z,100038.50
2022-08-10T03:49:24.215Z,100039.33
2022-08-10T03:49:59.341Z,100036.06
2022-08-10T03:50:54.533Z,100037.06
2022-08-10T03:51:28.747Z,100035.98
2022-08-10T03:52:02.359Z,100036.36
2022-08-10T03:52:36.574Z,100035.64
2022-08-10T03:53:10.938Z,100036.38
2022-08-10T03:54:07.228Z,100036.35
2022-08-10T03:54:42.690Z,100033.63
2022-08-10T03:56:26.705Z,100034.88
2022-08-10T03:56:29.273Z,100034.55
2022-08-10T03:57:03.217Z,100032.92
2022-08-10T03:57:36.616Z,100032.98
2022-08-10T03:58:22.840Z,100030.95
2022-08-10T03:58:56.390Z,100029.82
2022-08-10T03:59:31.731Z,100033.16
2022-08-10T04:00:05.849Z,100029.52
2022-08-10T04:00:39.718Z,100032.17
2022-08-10T04:01:16.674Z,100031.86
2022-08-10T04:02:46.061Z,100035.83
2022-08-10T04:02:48.414Z,100036.81
2022-08-10T04:03:22.285Z,100037.92
2022-08-10T04:04:12.972Z,100034.55
2022-08-10T04:04:48.041Z,100035.80
2022-08-10T04:05:21.380Z,100036.09
2022-08-10T04:05:54.767Z,100036.43
2022-08-10T04:06:28.541Z,100036.23
2022-08-10T04:07:03.674Z,100034.98
2022-08-10T04:07:37.941Z,100036.58
2022-08-10T04:08:11.138Z,100038.38
2022-08-10T04:08:44.666Z,100036.36
2022-08-10T04:09:17.747Z,100041.91
2022-08-10T04:09:55.271Z,100038.73
2022-08-10T04:10:29.743Z,100037.02
2022-08-10T04:11:02.958Z,100037.68
2022-08-10T04:11:37.331Z,100039.11
2022-08-10T04:12:14.819Z,100038.06
2022-08-10T04:12:48.034Z,100039.23
2022-08-10T04:13:24.793Z,100038.34
2022-08-10T04:13:57.968Z,100034.85
2022-08-10T04:14:47.597Z,100036.78
2022-08-10T04:15:26.643Z,100038.27
2022-08-10T04:15:59.885Z,100039.92
2022-08-10T04:16:35.198Z,100036.62
2022-08-10T04:17:13.372Z,100037.35
2022-08-10T04:18:04.578Z,100036.73
2022-08-10T04:18:39.332Z,100036.15
2022-08-10T04:19:15.961Z,100036.63
2022-08-10T04:19:51.416Z,100037.28
2022-08-10T04:20:34.821Z,100040.25
2022-08-10T04:21:38.153Z,100041.02
2022-08-10T04:22:18.263Z,100036.34
2022-08-10T04:22:53.985Z,100033.83
2022-08-10T04:23:31.298Z,100037.47
2022-08-10T04:24:06.796Z,100038.73
2022-08-10T04:24:42.232Z,100037.36
2022-08-10T04:25:16.579Z,100036.16
2022-08-10T04:25:51.560Z,100038.98
2022-08-10T04:26:25.723Z,100036.68
2022-08-10T04:26:58.921Z,100039.19
2022-08-10T04:27:32.657Z,100041.23
2022-08-10T04:28:07.945Z,100040.11
2022-08-10T04:28:42.141Z,100040.42
2022-08-10T04:29:15.419Z,100042.45
2022-08-10T04:29:51.744Z,100043.41
2022-08-10T04:30:27.799Z,100045.14
2022-08-10T04:31:04.401Z,100048.04
2022-08-10T04:31:39.136Z,100046.08
2022-08-10T04:32:17.816Z,100051.00
2022-08-10T04:32:55.731Z,100051.80
2022-08-10T04:33:30.967Z,100050.01
2022-08-10T04:34:08.406Z,100050.68
2022-08-10T04:34:44.969Z,100051.73
2022-08-10T04:35:20.385Z,100055.86
2022-08-10T04:35:54.637Z,100054.52
2022-08-10T04:36:29.355Z,100054.13
2022-08-10T04:37:08.767Z,100051.44
2022-08-10T04:37:47.096Z,100049.65
2022-08-10T04:38:23.335Z,100050.60
2022-08-10T04:38:56.985Z,100049.30
2022-08-10T04:39:31.323Z,100049.40
2022-08-10T04:40:05.751Z,100051.41
2022-08-10T04:40:59.318Z,100052.56
2022-08-10T04:41:32.911Z,100050.03
2022-08-10T04:42:07.003Z,100050.06
2022-08-10T04:42:40.265Z,100051.09
2022-08-10T04:43:13.741Z,100051.17
2022-08-10T04:43:47.837Z,100051.40
2022-08-10T04:44:21.424Z,100052.75
2022-08-10T04:44:55.427Z,100053.02
2022-08-10T04:45:49.682Z,100056.15
2022-08-10T04:46:42.831Z,100052.34
2022-08-10T04:47:16.821Z,100054.43
2022-08-10T04:48:08.108Z,100055.96
2022-08-10T04:49:01.446Z,100057.36
2022-08-10T04:49:56.558Z,100055.45
2022-08-10T04:50:29.045Z,100057.09
2022-08-10T04:51:05.254Z,100055.11
2022-08-10T04:51:38.519Z,100057.51
2022-08-10T04:52:11.686Z,100057.95
2022-08-10T04:52:44.996Z,100055.48
2022-08-10T04:53:18.134Z,100055.96
2022-08-10T04:54:05.183Z,100056.36
2022-08-10T04:54:41.754Z,100058.08
2022-08-10T04:55:15.637Z,100058.88
2022-08-10T04:55:48.883Z,100058.27
2022-08-10T04:56:31.173Z,100059.67
2022-08-10T04:57:05.937Z,100059.23
2022-08-10T04:57:39.139Z,100060.45
2022-08-10T04:58:12.290Z,100060.73
2022-08-10T04:58:45.401Z,100057.15
2022-08-10T04:59:18.624Z,100062.09
2022-08-10T04:59:51.699Z,100057.94
2022-08-10T05:00:24.933Z,100055.13
2022-08-10T05:00:58.050Z,100056.89
2022-08-10T05:02:21.374Z,100054.52
2022-08-10T05:02:31.397Z,100055.15
2022-08-10T05:03:05.869Z,100054.70
2022-08-10T05:04:36.395Z,100054.02
2022-08-10T05:04:36.983Z,100056.17
2022-08-10T05:05:12.509Z,100058.67
2022-08-10T05:05:46.411Z,100057.06
2022-08-10T05:06:21.781Z,100060.32
2022-08-10T05:06:54.923Z,100059.46
2022-08-10T05:07:28.094Z,100061.03
2022-08-10T05:08:01.432Z,100061.45
2022-08-10T05:08:34.639Z,100062.67
2022-08-10T05:09:07.795Z,100063.80
2022-08-10T05:10:01.133Z,100064.86
2022-08-10T05:10:35.741Z,100065.38
2022-08-10T05:11:09.193Z,100062.48
2022-08-10T05:11:42.431Z,100065.98
2022-08-10T05:12:15.712Z,100066.28
2022-08-10T05:12:48.821Z,100065.27
2022-08-10T05:13:22.019Z,100063.33
2022-08-10T05:13:55.137Z,100063.10
2022-08-10T05:14:28.131Z,100064.29
2022-08-10T05:15:01.318Z,100063.24
2022-08-10T05:15:34.541Z,100062.62
2022-08-10T05:16:07.920Z,100059.88
2022-08-10T05:16:41.121Z,100060.86
2022-08-10T05:17:14.278Z,100061.53
2022-08-10T05:18:08.250Z,100061.89
2022-08-10T05:18:40.623Z,100060.52
2022-08-10T05:19:13.839Z,100057.87
2022-08-10T05:20:04.987Z,100060.38
2022-08-10T05:20:39.863Z,100053.09
2022-08-10T05:22:03.114Z,100053.84
2022-08-10T05:22:06.922Z,100052.64
2022-08-10T05:22:46.627Z,100053.17
2022-08-10T05:23:19.797Z,100055.69
2022-08-10T05:23:53.010Z,100051.54
2022-08-10T05:24:26.172Z,100053.05
2022-08-10T05:24:59.297Z,100052.93
2022-08-10T05:25:32.926Z,100054.11
2022-08-10T05:26:11.146Z,100051.47
2022-08-10T05:27:00.549Z,100052.39
2022-08-10T05:27:39.556Z,100049.95
2022-08-10T05:28:12.799Z,100050.61
2022-08-10T05:28:45.987Z,100053.10
2022-08-10T05:29:19.213Z,100053.75
2022-08-10T05:30:01.254Z,100052.08
2022-08-10T05:30:36.850Z,100050.40
2022-08-10T05:31:10.093Z,100052.16
2022-08-10T05:31:49.941Z,100054.44
2022-08-10T05:32:23.036Z,100055.34
2022-08-10T05:33:00.753Z,100051.58
2022-08-10T05:33:35.986Z,100051.19
2022-08-10T05:34:20.780Z,100052.48
2022-08-10T05:34:54.534Z,100049.73
2022-08-10T05:35:52.441Z,100052.08
2022-08-10T05:36:24.578Z,100055.25
2022-08-10T05:36:58.345Z,100051.90
2022-08-10T05:38:12.872Z,100052.55
2022-08-10T05:38:28.286Z,100055.89
2022-08-10T05:39:02.649Z,100053.07
2022-08-10T05:39:38.264Z,100056.26
2022-08-10T05:40:12.560Z,100054.87
2022-08-10T05:40:48.085Z,100056.10
2022-08-10T05:41:22.371Z,100058.96
2022-08-10T05:41:56.280Z,100057.83
2022-08-10T05:42:35.941Z,100060.39
2022-08-10T05:43:09.201Z,100056.81
2022-08-10T05:43:42.425Z,100058.11
2022-08-10T05:44:15.723Z,100055.25
2022-08-10T05:44:48.919Z,100055.34
2022-08-10T05:45:27.303Z,100054.31
2022-08-10T05:46:19.637Z,100055.33
2022-08-10T05:46:53.577Z,100049.45
2022-08-10T05:47:27.214Z,100053.33
2022-08-10T05:48:53.920Z,100053.35
2022-08-10T05:49:00.525Z,100051.09
2022-08-10T05:49:35.022Z,100053.45
2022-08-10T05:50:08.951Z,100052.35
2022-08-10T05:50:42.392Z,100049.45
2022-08-10T05:51:17.039Z,100046.51
2022-08-10T05:51:53.389Z,100053.04
2022-08-10T05:52:27.193Z,100051.16
2022-08-10T05:53:23.086Z,100051.36
2022-08-10T05:54:03.114Z,100052.08
2022-08-10T05:54:40.436Z,100051.40
2022-08-10T05:55:13.867Z,100051.38
2022-08-10T05:55:51.553Z,100053.30
2022-08-10T05:56:24.721Z,100057.63
2022-08-10T05:56:58.488Z,100051.08
2022-08-10T05:57:32.153Z,100052.44
2022-08-10T05:58:05.325Z,100052.09
2022-08-10T05:58:39.286Z,100057.23
2022-08-10T05:59:15.042Z,100052.80
2022-08-10T06:00:11.101Z,100051.91
2022-08-10T06:00:54.784Z,100052.98
2022-08-10T06:01:29.063Z,100048.83
2022-08-10T06:02:30.841Z,100049.29
2022-08-10T06:03:04.444Z,100050.70
2022-08-10T06:03:47.213Z,100047.05
2022-08-10T06:04:29.800Z,100049.46
2022-08-10T06:05:10.864Z,100049.34
2022-08-10T06:05:47.488Z,100046.44
2022-08-10T06:06:25.017Z,100050.38
2022-08-10T06:07:01.834Z,100046.46
2022-08-10T06:07:38.283Z,100043.73
2022-08-10T06:08:21.886Z,100042.85
2022-08-10T06:08:57.410Z,100052.30
2022-08-10T06:09:32.701Z,100048.46
2022-08-10T06:10:10.202Z,100040.73
2022-08-10T06:12:16.455Z,100047.73
2022-08-10T06:12:26.978Z,100048.76
2022-08-10T06:12:55.035Z,100046.55
2022-08-10T06:14:00.000Z,100046.55
2022-08-10T06:15:05.364Z,100048.08
2022-08-10T06:15:51.480Z,100050.49
2022-08-10T06:16:27.058Z,100049.14
2022-08-10T06:17:01.608Z,100045.23
2022-08-10T06:17:37.527Z,100047.77
2022-08-10T06:18:14.162Z,100046.92
2022-08-10T06:18:49.093Z,100049.63
2022-08-10T06:19:23.185Z,100048.91
2022-08-10T06:20:01.226Z,100047.48
2022-08-10T06:20:36.258Z,100049.25
2022-08-10T06:21:09.980Z,100050.41
2022-08-10T06:22:00.493Z,100052.25
2022-08-10T06:22:36.028Z,100051.20
2022-08-10T06:23:11.812Z,100050.92
2022-08-10T06:23:46.285Z,100051.65
2022-08-10T06:24:25.460Z,100055.30
2022-08-10T06:26:10.141Z,100049.77
2022-08-10T06:26:45.713Z,100051.89
2022-08-10T06:27:19.016Z,100051.77
2022-08-10T06:28:16.875Z,100051.79
2022-08-10T06:29:02.765Z,100055.31
2022-08-10T06:29:44.606Z,100054.97
2022-08-10T06:30:20.922Z,100054.80
2022-08-10T06:30:56.563Z,100056.83
2022-08-10T06:31:46.895Z,100056.38
2022-08-10T06:32:28.068Z,100056.60
2022-08-10T06:33:04.514Z,100057.95
2022-08-10T06:33:40.805Z,100058.92
2022-08-10T06:34:16.377Z,100057.27
2022-08-10T06:34:55.518Z,100056.19
2022-08-10T06:35:35.658Z,100056.53
2022-08-10T06:36:10.911Z,100056.64
2022-08-10T06:36:46.084Z,100054.61
2022-08-10T06:37:22.828Z,100051.58
2022-08-10T06:38:03.130Z,100056.02
2022-08-10T06:38:38.344Z,100052.45
2022-08-10T06:39:32.531Z,100055.58
2022-08-10T06:40:06.366Z,100056.56
2022-08-10T06:40:43.722Z,100057.30
2022-08-10T06:41:22.585Z,100054.01
2022-08-10T06:42:21.307Z,100053.67
2022-08-10T06:42:56.856Z,100054.70
2022-08-10T06:43:36.811Z,100054.72
2022-08-10T06:44:19.555Z,100052.57
2022-08-10T06:44:52.678Z,100051.55
2022-08-10T06:45:31.743Z,100055.13
2022-08-10T06:46:15.897Z,100057.01
2022-08-10T06:46:51.211Z,100056.61
2022-08-10T06:47:43.821Z,100057.46
2022-08-10T06:48:21.897Z,100052.62
2022-08-10T06:49:00.814Z,100057.45
2022-08-10T06:49:36.514Z,100055.94
2022-08-10T06:50:35.015Z,100056.48
2022-08-10T06:51:26.360Z,100052.79
2022-08-10T06:52:03.097Z,100055.45
2022-08-10T06:52:38.524Z,100053.69
2022-08-10T06:53:16.748Z,100055.83
2022-08-10T06:53:55.225Z,100057.38
2022-08-10T06:54:31.506Z,100055.52
2022-08-10T06:55:09.031Z,100056.18
2022-08-10T06:55:55.467Z,100057.19
2022-08-10T06:56:41.461Z,100054.70
2022-08-10T06:57:25.196Z,100056.51
2022-08-10T06:58:01.222Z,100059.44
2022-08-10T06:58:41.728Z,100056.38
2022-08-10T06:59:42.344Z,100057.60
2022-08-10T07:00:20.444Z,100060.23
2022-08-10T07:00:55.869Z,100058.69
2022-08-10T07:01:38.037Z,100056.38
2022-08-10T07:02:15.972Z,100060.49
2022-08-10T07:02:59.436Z,100059.21
2022-08-10T07:03:39.278Z,100059.67
2022-08-10T07:04:19.431Z,100058.52
2022-08-10T07:05:11.467Z,100058.33
2022-08-10T07:05:51.158Z,100056.14
2022-08-10T07:06:25.545Z,100058.31
2022-08-10T07:07:05.015Z,100057.98
2022-08-10T07:07:43.278Z,100057.08
2022-08-10T07:08:23.872Z,100055.85
2022-08-10T07:08:58.895Z,100052.96
2022-08-10T07:09:36.120Z,100052.74
2022-08-10T07:10:10.823Z,100053.50
2022-08-10T07:10:46.803Z,100052.10
2022-08-10T07:11:22.330Z,100050.66
2022-08-10T07:11:58.458Z,100051.36
2022-08-10T07:12:44.983Z,100052.79
2022-08-10T07:14:14.384Z,100050.01
2022-08-10T07:14:18.475Z,100052.94
2022-08-10T07:14:54.788Z,100052.01
2022-08-10T07:15:59.746Z,100057.48
2022-08-10T07:16:28.839Z,100055.34
2022-08-10T07:17:03.474Z,100057.45
2022-08-10T07:17:39.616Z,100056.54
2022-08-10T07:18:13.261Z,100053.37
2022-08-10T07:18:48.333Z,100054.22
2022-08-10T07:19:24.614Z,100052.11
2022-08-10T07:20:04.356Z,100055.36
2022-08-10T07:20:40.212Z,100051.35
2022-08-10T07:21:15.539Z,100053.94
2022-08-10T07:21:51.034Z,100051.30
2022-08-10T07:23:08.154Z,100046.04
2022-08-10T07:23:57.814Z,100051.96
2022-08-10T07:24:25.574Z,100047.16
2022-08-10T07:25:00.364Z,100051.45
2022-08-10T07:25:35.447Z,100053.41
2022-08-10T07:26:10.243Z,100049.67
2022-08-10T07:26:50.980Z,100052.71
2022-08-10T07:27:25.191Z,100050.20
2022-08-10T07:28:01.973Z,100052.01
2022-08-10T07:28:37.071Z,100049.43
2022-08-10T07:29:53.016Z,100048.30
2022-08-10T07:30:06.181Z,100048.98
2022-08-10T07:30:42.173Z,100048.08
2022-08-10T07:31:33.046Z,100048.69
2022-08-10T07:32:14.711Z,100051.48
2022-08-10T07:32:51.240Z,100050.22
2022-08-10T07:33:26.135Z,100054.12
2022-08-10T07:34:00.688Z,100053.45
2022-08-10T07:34:37.379Z,100053.65
2022-08-10T07:35:13.922Z,100054.97
2022-08-10T07:35:49.402Z,100051.30
2022-08-10T07:36:24.215Z,100052.98
2022-08-10T07:37:07.942Z,100056.70
2022-08-10T07:37:43.041Z,100057.98
2022-08-10T07:38:27.405Z,100060.81